Time;durP1;ratioP1;P1;durP2;ratioP2;P2;SDS_P1;SDS_P2;PMS_P1;PMS_P2;Temp;Humidity;BMP_temperature;BMP_pressure;BME280_temperature;BME280_humidity;BME280_pressure;Samples;Min_cycle;Max_cycle;Signal;HPM_P1;HPM_P2
2023/01/27 00:02:16;;;;;;;;;3.00;1.00;;;;;6.50;100.00;102179.78;4996170;28;70269;-78
2023/01/27 00:04:42;;;;;;;;;4.25;1.25;;;;;6.49;100.00;102175.50;4996182;28;64949;-78
2023/01/27 00:07:07;;;;;;;;;2.25;1.00;;;;;6.49;100.00;102180.66;4996266;28;63173;-79
2023/01/27 00:09:32;;;;;;;;;1.00;1.00;;;;;6.49;100.00;102178.94;4997137;28;45386;-78
2023/01/27 00:14:41;;;;;;;;;2.00;1.00;;;;;6.45;100.00;102168.56;4996949;28;45795;-78
2023/01/27 00:17:07;;;;;;;;;1.00;1.00;;;;;6.46;100.00;102178.88;4996207;28;59614;-78
2023/01/27 00:19:32;;;;;;;;;1.00;1.00;;;;;6.45;100.00;102173.72;4996095;28;67384;-78
2023/01/27 00:24:42;;;;;;;;;2.00;1.00;;;;;6.43;100.00;102170.25;4996516;28;45401;-78
2023/01/27 00:27:08;;;;;;;;;0.75;0.75;;;;;6.43;100.00;102172.84;4996934;28;45367;-78
2023/01/27 00:29:37;;;;;;;;;1.00;0.00;;;;;6.45;100.00;102184.94;4996846;28;45275;-78
2023/01/27 00:34:47;;;;;;;;;1.00;1.00;;;;;6.45;100.00;102176.31;4981634;28;45283;-78
2023/01/27 00:37:12;;;;;;;;;2.00;1.25;;;;;6.40;100.00;102173.66;4996776;28;45348;-78
2023/01/27 00:39:37;;;;;;;;;2.75;1.00;;;;;6.43;100.00;102172.84;4996107;28;49947;-78
2023/01/27 00:42:03;;;;;;;;;1.00;0.75;;;;;6.45;100.00;102176.31;4996300;28;54147;-78
2023/01/27 00:44:28;;;;;;;;;0.25;0.25;;;;;6.45;100.00;102174.59;4996867;28;45573;-78
2023/01/27 00:46:53;;;;;;;;;1.00;1.00;;;;;6.43;100.00;102170.25;4996052;28;55802;-78
2023/01/27 00:49:19;;;;;;;;;1.50;1.00;;;;;6.45;100.00;102171.13;4996491;28;45407;-78
2023/01/27 00:51:44;;;;;;;;;2.00;1.75;;;;;6.49;100.00;102162.56;4995623;28;70346;-78
2023/01/27 00:54:10;;;;;;;;;2.00;1.00;;;;;6.49;100.00;102162.56;4995289;28;69652;-78
2023/01/27 00:56:36;;;;;;;;;3.00;1.00;;;;;6.47;100.00;102159.94;4978411;28;45430;-78
2023/01/27 00:59:03;;;;;;;;;5.00;1.00;;;;;6.51;100.00;102164.28;4996448;28;45540;-78
2023/01/27 01:01:28;;;;;;;;;0.50;0.50;;;;;6.54;100.00;102164.34;4996355;28;45782;-78
2023/01/27 01:03:54;;;;;;;;;0.00;0.00;;;;;6.52;100.00;102160.88;4996291;28;45386;-78
2023/01/27 01:06:19;;;;;;;;;2.00;1.00;;;;;6.52;100.00;102165.16;4995635;28;63836;-78
2023/01/27 01:08:45;;;;;;;;;0.00;0.00;;;;;6.54;100.00;102161.75;4995960;28;45289;-77
2023/01/27 01:11:13;;;;;;;;;1.00;1.00;;;;;6.48;100.00;102156.53;4995275;28;70748;-78
2023/01/27 01:13:39;;;;;;;;;0.00;0.00;;;;;6.54;100.00;102166.94;4978583;28;45415;-78
2023/01/27 01:16:24;;;;;;;;;0.50;0.50;;;;;6.52;100.00;102163.47;4978485;28;45359;-78
2023/01/27 01:18:49;;;;;;;;;0.00;0.00;;;;;6.51;100.00;102160.84;4996281;28;45276;-78
2023/01/27 01:21:15;;;;;;;;;2.00;0.00;;;;;6.52;100.00;102159.97;4995221;28;69034;-78
2023/01/27 01:23:42;;;;;;;;;0.00;0.00;;;;;6.50;100.00;102152.22;4995757;28;45453;-79
2023/01/27 01:26:09;;;;;;;;;1.50;0.00;;;;;6.49;100.00;102158.25;4978593;28;45445;-78
2023/01/27 01:28:35;;;;;;;;;1.25;1.00;;;;;6.49;100.00;102149.63;4996013;28;45417;-78
2023/01/27 01:31:08;;;;;;;;;0.00;0.00;;;;;6.50;100.00;102151.34;4977361;28;74193;-78
2023/01/27 01:33:35;;;;;;;;;2.00;1.00;;;;;6.46;100.00;102141.81;4995857;28;45706;-78
2023/01/27 01:36:09;;;;;;;;;1.00;1.00;;;;;6.48;100.00;102142.69;4978459;28;45350;-78
2023/01/27 01:38:34;;;;;;;;;2.00;0.00;;;;;6.46;100.00;102145.25;4995788;28;45349;-78
2023/01/27 01:41:00;;;;;;;;;0.75;0.75;;;;;6.45;100.00;102145.28;4995605;28;47077;-78
2023/01/27 01:43:26;;;;;;;;;0.00;0.00;;;;;6.44;100.00;102140.94;4994743;28;71969;-78
2023/01/27 01:45:57;;;;;;;;;0.00;0.00;;;;;6.45;100.00;102148.72;4996119;28;45279;-78
2023/01/27 01:48:30;;;;;;;;;1.50;0.00;;;;;6.47;100.00;102140.97;4981838;28;45380;-78
2023/01/27 01:51:18;;;;;;;;;1.50;0.75;;;;;6.47;100.00;102144.44;4981685;28;45787;-78
2023/01/27 01:54:08;;;;;;;;;2.00;0.00;;;;;6.47;100.00;102143.56;4981306;28;45690;-78
2023/01/27 01:56:57;;;;;;;;;3.00;1.00;;;;;6.52;100.00;102147.03;4981435;28;45464;-78
2023/01/27 01:59:25;;;;;;;;;0.75;0.50;;;;;6.52;100.00;102147.03;4999146;28;45362;-78
2023/01/27 02:01:52;;;;;;;;;0.00;0.00;;;;;6.51;100.00;102146.19;4998901;28;47261;-77
2023/01/27 02:04:22;;;;;;;;;0.00;0.00;;;;;6.50;100.00;102138.41;4999262;28;45663;-78
2023/01/27 02:06:53;;;;;;;;;0.00;0.00;;;;;6.52;100.00;102137.59;4998701;28;45373;-78
2023/01/27 02:09:20;;;;;;;;;2.00;0.50;;;;;6.55;100.00;102140.19;4981675;28;45347;-78
2023/01/27 02:11:45;;;;;;;;;1.00;1.00;;;;;6.54;100.00;102135.88;4981324;28;47258;-79
2023/01/27 02:14:13;;;;;;;;;1.00;0.00;;;;;6.51;100.00;102134.97;4997837;28;70638;-78
2023/01/27 02:16:39;;;;;;;;;0.75;0.00;;;;;6.50;100.00;102130.63;4981258;28;45481;-78
2023/01/27 02:19:04;;;;;;;;;1.00;1.00;;;;;6.50;100.00;102135.81;4981527;28;45527;-79
2023/01/27 02:21:30;;;;;;;;;1.25;0.50;;;;;6.48;100.00;102129.75;4979932;28;72176;-78
2023/01/27 02:24:05;;;;;;;;;2.00;1.00;;;;;6.50;100.00;102130.63;4980399;28;66211;-78
2023/01/27 02:26:43;;;;;;;;;3.00;0.00;;;;;6.45;100.00;102120.25;4981736;28;45343;-78
2023/01/27 02:29:11;;;;;;;;;0.75;0.00;;;;;6.44;100.00;102121.09;4998754;28;45381;-78
2023/01/27 02:31:37;;;;;;;;;0.75;0.50;;;;;6.43;100.00;102121.97;4998511;28;47408;-78
2023/01/27 02:34:14;;;;;;;;;2.75;1.25;;;;;6.46;100.00;102134.91;4994843;28;45472;-78
2023/01/27 02:36:44;;;;;;;;;1.00;1.00;;;;;6.45;100.00;102122.84;4998457;28;45372;-78
2023/01/27 02:39:12;;;;;;;;;4.50;0.00;;;;;6.44;100.00;102115.94;4998787;28;45382;-78
2023/01/27 02:41:49;;;;;;;;;0.00;0.00;;;;;6.44;100.00;102112.47;4998431;28;46386;-78
2023/01/27 02:44:14;;;;;;;;;0.25;0.00;;;;;6.47;100.00;102105.63;4997307;28;45575;-78
2023/01/27 02:46:39;;;;;;;;;5.25;1.00;;;;;6.45;100.00;102111.66;4998114;28;55706;-78
2023/01/27 02:49:05;;;;;;;;;0.00;0.00;;;;;6.45;100.00;102114.22;4997497;28;66044;-78
2023/01/27 02:51:30;;;;;;;;;0.00;0.00;;;;;6.43;100.00;102111.63;4997508;28;60065;-79
2023/01/27 02:53:55;;;;;;;;;3.50;1.00;;;;;6.44;100.00;102112.47;4998062;28;45695;-78
2023/01/27 02:56:21;;;;;;;;;1.75;1.00;;;;;6.47;100.00;102120.28;4997471;28;65074;-78
2023/01/27 02:58:46;;;;;;;;;0.50;0.50;;;;;6.46;100.00;102106.47;4996693;28;49396;-78
2023/01/27 03:01:12;;;;;;;;;2.00;1.00;;;;;6.47;100.00;102115.13;4997262;28;69392;-78
2023/01/27 03:03:42;;;;;;;;;1.00;1.00;;;;;6.45;100.00;102116.81;4997606;28;62403;-78
2023/01/27 03:06:09;;;;;;;;;0.50;0.50;;;;;6.43;100.00;102115.94;4997909;28;45428;-78
2023/01/27 03:08:34;;;;;;;;;2.50;0.00;;;;;6.37;100.00;102109.84;4998390;28;45434;-78
2023/01/27 03:11:00;;;;;;;;;1.00;1.00;;;;;6.38;100.00;102113.28;4997948;28;46297;-78
2023/01/27 03:13:26;;;;;;;;;1.00;1.00;;;;;6.36;100.00;102112.41;4997913;28;45381;-78
2023/01/27 03:18:36;;;;;;;;;0.00;0.00;;;;;6.42;100.00;102109.00;4997705;28;45341;-78
2023/01/27 03:21:04;;;;;;;;;1.00;1.00;;;;;6.40;100.00;102111.59;4996998;28;74086;-78
2023/01/27 03:23:33;;;;;;;;;1.00;1.00;;;;;6.36;100.00;102100.34;4997703;28;45814;-78
2023/01/27 03:25:59;;;;;;;;;1.00;1.00;;;;;6.36;100.00;102105.50;4997793;28;45336;-78
2023/01/27 03:28:24;;;;;;;;;3.50;1.00;;;;;6.36;100.00;102097.75;4997813;28;45239;-78
2023/01/27 03:30:50;;;;;;;;;1.25;0.00;;;;;6.37;100.00;102106.38;4996955;28;75352;-78
2023/01/27 03:33:15;;;;;;;;;7.50;2.00;;;;;6.38;100.00;102102.94;4996358;28;70871;-78
2023/01/27 03:35:46;;;;;;;;;1.00;1.00;;;;;6.37;100.00;102104.66;4996843;28;64094;-78
2023/01/27 03:46:31;;;;;;;;;4.25;1.00;;;;;6.33;100.00;102091.69;4997712;28;45467;-78
2023/01/27 03:48:58;;;;;;;;;2.50;1.00;;;;;6.38;100.00;102093.44;4997264;28;45383;-78
2023/01/27 03:51:24;;;;;;;;;1.75;0.75;;;;;6.39;100.00;102092.63;4997368;28;46268;-79
2023/01/27 03:53:49;;;;;;;;;0.00;0.00;;;;;6.45;100.00;102103.88;4997454;28;45506;-78
2023/01/27 03:56:16;;;;;;;;;3.00;1.00;;;;;6.42;100.00;102093.50;4997192;28;45416;-78
2023/01/27 03:58:42;;;;;;;;;7.25;5.00;;;;;6.45;100.00;102089.22;4979653;28;45442;-78
2023/01/27 04:01:19;;;;;;;;;1.00;0.00;;;;;6.44;100.00;102096.97;4997159;28;45544;-78
2023/01/27 04:09:32;;;;;;;;;2.00;1.00;;;;;6.41;100.00;102092.63;4997106;28;45515;-78
2023/01/27 04:11:59;;;;;;;;;2.50;1.50;;;;;6.40;100.00;102093.47;4979320;28;45417;-79
2023/01/27 04:14:32;;;;;;;;;2.50;1.00;;;;;6.40;100.00;102091.75;4997125;28;45378;-78
2023/01/27 04:17:03;;;;;;;;;1.25;1.00;;;;;6.39;100.00;102094.34;4996892;28;45396;-78
2023/01/27 04:19:28;;;;;;;;;1.25;0.00;;;;;6.40;100.00;102090.88;4997103;28;45342;-79
2023/01/27 04:21:54;;;;;;;;;1.25;1.00;;;;;6.38;100.00;102090.00;4996950;28;45766;-79
2023/01/27 04:24:23;;;;;;;;;2.00;1.00;;;;;6.39;100.00;102087.44;4996951;28;45705;-78
2023/01/27 04:26:53;;;;;;;;;4.75;1.00;;;;;6.39;100.00;102102.09;4996741;28;46060;-78
2023/01/27 04:29:18;;;;;;;;;2.50;0.75;;;;;6.36;100.00;102087.41;4996872;28;45429;-78
2023/01/27 04:31:43;;;;;;;;;1.75;0.00;;;;;6.39;100.00;102100.38;4978713;28;47331;-78
2023/01/27 04:34:10;;;;;;;;;0.00;0.00;;;;;6.40;100.00;102093.47;4995562;28;66988;-78
2023/01/27 04:36:36;;;;;;;;;0.00;0.00;;;;;6.40;100.00;102088.31;4996748;28;45366;-78
2023/01/27 04:39:01;;;;;;;;;1.75;1.00;;;;;6.38;100.00;102090.00;4995818;28;69714;-78
2023/01/27 04:41:26;;;;;;;;;4.25;0.25;;;;;6.38;100.00;102084.84;4979168;28;45376;-78
2023/01/27 04:43:52;;;;;;;;;1.00;1.00;;;;;6.39;100.00;102089.16;4996872;28;45294;-78
2023/01/27 04:46:17;;;;;;;;;2.50;0.00;;;;;6.37;100.00;102086.56;4995672;28;65569;-78
2023/01/27 04:48:42;;;;;;;;;0.00;0.00;;;;;6.37;100.00;102075.31;4996133;28;62067;-78
2023/01/27 04:51:08;;;;;;;;;2.25;0.00;;;;;6.37;100.00;102075.31;4995596;28;72203;-79
2023/01/27 04:53:33;;;;;;;;;1.75;0.00;;;;;6.28;100.00;102062.31;4995631;28;70493;-78
2023/01/27 04:56:04;;;;;;;;;1.50;0.00;;;;;6.37;100.00;102077.91;4995576;28;67888;-78
2023/01/27 04:58:30;;;;;;;;;0.00;0.00;;;;;6.39;100.00;102071.06;4978805;28;45613;-78
2023/01/27 05:00:55;;;;;;;;;7.75;0.00;;;;;6.40;100.00;102077.97;4995227;28;68245;-78
2023/01/27 05:03:21;;;;;;;;;2.50;0.00;;;;;6.38;100.00;102077.94;4978614;28;45433;-78
2023/01/27 05:05:46;;;;;;;;;1.00;1.00;;;;;6.41;100.00;102079.72;4995869;28;55449;-78
2023/01/27 05:08:11;;;;;;;;;4.25;1.25;;;;;6.42;100.00;102067.63;4995573;28;65816;-78
2023/01/27 05:10:37;;;;;;;;;1.25;0.00;;;;;6.42;100.00;102080.56;4995539;28;61929;-78
2023/01/27 05:13:02;;;;;;;;;0.00;0.00;;;;;6.38;100.00;102069.31;4996076;28;45396;-78
2023/01/27 05:15:28;;;;;;;;;2.00;0.00;;;;;6.42;100.00;102076.25;4995270;28;64933;-78
2023/01/27 05:17:53;;;;;;;;;2.00;1.25;;;;;6.42;100.00;102076.25;4996048;28;45342;-78
2023/01/27 05:20:19;;;;;;;;;4.50;0.00;;;;;6.46;100.00;102077.16;4978355;28;45438;-78
2023/01/27 05:22:45;;;;;;;;;1.00;0.25;;;;;6.47;100.00;102072.00;4977971;28;45338;-78
2023/01/27 05:25:10;;;;;;;;;0.75;0.00;;;;;6.45;100.00;102078.88;4996269;28;45429;-78
2023/01/27 05:27:35;;;;;;;;;3.25;1.00;;;;;6.40;100.00;102073.66;4978062;28;58694;-78
2023/01/27 05:30:01;;;;;;;;;1.00;1.00;;;;;6.38;100.00;102069.31;4994741;28;64758;-78
2023/01/27 05:32:26;;;;;;;;;1.00;1.00;;;;;6.40;100.00;102076.22;4996130;28;45597;-78
2023/01/27 05:34:52;;;;;;;;;2.00;1.00;;;;;6.40;100.00;102077.97;4965812;28;64671;-78
2023/01/27 05:37:17;;;;;;;;;0.00;0.00;;;;;6.38;100.00;102075.34;4975696;28;63090;-78
2023/01/27 05:39:42;;;;;;;;;0.25;0.25;;;;;6.35;100.00;102071.88;4975598;28;67730;-78
2023/01/27 05:42:08;;;;;;;;;0.50;0.50;;;;;6.37;100.00;102080.50;4975415;28;65312;-78
2023/01/27 05:44:33;;;;;;;;;8.25;1.00;;;;;6.34;100.00;102068.41;4975717;28;48085;-77
2023/01/27 05:46:58;;;;;;;;;0.25;0.25;;;;;6.38;100.00;102071.91;4975595;28;59538;-78
2023/01/27 05:49:24;;;;;;;;;1.00;1.00;;;;;6.39;100.00;102076.25;4975881;28;50100;-78
2023/01/27 05:51:49;;;;;;;;;2.00;0.00;;;;;6.38;100.00;102080.53;4975246;28;70091;-78
2023/01/27 05:54:14;;;;;;;;;2.00;0.50;;;;;6.38;100.00;102083.09;4975720;28;58021;-78
2023/01/27 05:56:40;;;;;;;;;1.50;0.00;;;;;6.36;100.00;102081.38;4991902;28;49687;-78
2023/01/27 05:59:05;;;;;;;;;1.75;1.00;;;;;6.40;100.00;102084.00;4995169;28;49074;-78
2023/01/27 06:01:33;;;;;;;;;1.75;0.75;;;;;6.38;100.00;102077.06;4978122;28;45651;-78
2023/01/27 06:03:58;;;;;;;;;0.25;0.25;;;;;6.40;100.00;102081.41;4978359;28;45551;-79
2023/01/27 06:06:25;;;;;;;;;1.00;0.00;;;;;6.42;100.00;102084.00;4978232;28;45487;-78
2023/01/27 06:08:51;;;;;;;;;5.25;0.00;;;;;6.43;100.00;102078.00;4995468;28;45393;-78
2023/01/27 06:11:18;;;;;;;;;0.75;0.50;;;;;6.44;100.00;102077.13;4995631;28;45302;-78
2023/01/27 06:13:44;;;;;;;;;3.25;0.00;;;;;6.43;100.00;102078.00;4995431;28;45322;-78
2023/01/27 06:16:11;;;;;;;;;3.00;0.00;;;;;6.42;100.00;102076.25;4978124;28;45485;-78
2023/01/27 06:18:37;;;;;;;;;6.25;0.75;;;;;6.46;100.00;102083.19;4977869;28;46132;-78
2023/01/27 06:21:04;;;;;;;;;1.00;0.00;;;;;6.46;100.00;102079.72;4995004;28;59357;-78
2023/01/27 06:23:30;;;;;;;;;3.25;1.00;;;;;6.40;100.00;102073.66;4995750;28;45350;-77
2023/01/27 06:25:58;;;;;;;;;1.25;0.00;;;;;6.45;100.00;102089.22;4995469;28;45418;-77
2023/01/27 06:28:23;;;;;;;;;1.00;1.00;;;;;6.43;100.00;102088.34;4977614;28;46673;-78
2023/01/27 06:30:49;;;;;;;;;0.25;0.25;;;;;6.38;100.00;102082.25;4994517;28;62981;-78
2023/01/27 06:33:15;;;;;;;;;4.00;1.50;;;;;6.43;100.00;102087.50;5003645;28;45370;-78
2023/01/27 06:35:40;;;;;;;;;4.00;2.00;;;;;6.40;100.00;102094.34;5016436;28;61293;-78
2023/01/27 06:38:07;;;;;;;;;4.75;2.00;;;;;6.40;100.00;102093.47;5018585;28;45408;-78
2023/01/27 06:40:34;;;;;;;;;1.75;1.00;;;;;6.34;100.00;102086.53;5018381;28;45726;-78
2023/01/27 06:42:59;;;;;;;;;1.75;1.00;;;;;6.39;100.00;102095.19;5016979;28;45495;-78
2023/01/27 06:45:25;;;;;;;;;4.00;1.00;;;;;6.40;100.00;102091.75;5017223;28;45255;-78
2023/01/27 06:47:59;;;;;;;;;1.25;1.00;;;;;6.44;100.00;102090.06;5018197;28;46399;-78
2023/01/27 06:50:26;;;;;;;;;2.00;1.00;;;;;6.43;100.00;102101.28;5018236;28;45273;-78
2023/01/27 06:52:52;;;;;;;;;1.00;1.00;;;;;6.42;100.00;102091.78;5018202;28;45371;-77
2023/01/27 06:55:18;;;;;;;;;1.00;1.00;;;;;6.41;100.00;102092.63;5011582;28;45455;-78
2023/01/27 06:57:46;;;;;;;;;5.00;1.00;;;;;6.38;100.00;102092.59;4997578;28;47257;-78
2023/01/27 07:00:13;;;;;;;;;2.00;1.50;;;;;6.42;100.00;102086.59;4997755;28;45705;-78
2023/01/27 07:02:38;;;;;;;;;2.75;1.00;;;;;6.42;100.00;102090.91;4997927;28;45392;-78
2023/01/27 07:05:03;;;;;;;;;2.00;2.00;;;;;6.44;100.00;102103.00;4996643;28;68141;-79
2023/01/27 07:07:29;;;;;;;;;2.00;1.75;;;;;6.45;100.00;102104.75;4997742;28;46315;-78
2023/01/27 07:09:54;;;;;;;;;1.00;1.00;;;;;6.46;100.00;102097.84;4997872;28;45290;-78
2023/01/27 07:12:19;;;;;;;;;5.50;1.00;;;;;6.46;100.00;102100.44;4994158;28;62306;-78
2023/01/27 07:14:45;;;;;;;;;5.00;2.00;;;;;6.44;100.00;102108.16;4997131;28;60347;-78
2023/01/27 07:17:10;;;;;;;;;1.00;1.00;;;;;6.46;100.00;102113.38;4996521;28;72849;-78
2023/01/27 07:19:36;;;;;;;;;4.25;1.00;;;;;6.48;100.00;102114.25;4998125;28;45309;-78
2023/01/27 07:22:01;;;;;;;;;4.00;1.00;;;;;6.50;100.00;102103.06;4997935;28;45364;-78
2023/01/27 07:24:26;;;;;;;;;1.00;1.00;;;;;6.50;100.00;102108.25;4997949;28;45529;-78
2023/01/27 07:26:52;;;;;;;;;9.50;2.00;;;;;6.49;100.00;102116.84;4996632;28;67000;-78
2023/01/27 07:29:17;;;;;;;;;1.00;1.00;;;;;6.50;100.00;102126.34;4997380;28;62417;-78
2023/01/27 07:31:43;;;;;;;;;2.00;2.00;;;;;6.48;100.00;102117.72;4997860;28;45268;-78
2023/01/27 07:34:09;;;;;;;;;3.75;1.25;;;;;6.52;100.00;102128.94;5003406;28;45482;-78
2023/01/27 07:36:34;;;;;;;;;1.00;1.00;;;;;6.50;100.00;102125.47;5017298;28;46140;-78
2023/01/27 07:38:59;;;;;;;;;2.50;2.00;;;;;6.48;100.00;102127.19;5016732;28;65194;-78
2023/01/27 07:41:25;;;;;;;;;1.00;1.00;;;;;6.51;100.00;102125.50;5016743;28;58133;-78
2023/01/27 07:43:50;;;;;;;;;5.75;1.75;;;;;6.50;100.00;102122.88;5016750;28;45434;-78
2023/01/27 07:46:16;;;;;;;;;4.25;1.00;;;;;6.50;100.00;102135.81;5016817;28;59119;-78
2023/01/27 07:48:41;;;;;;;;;1.25;1.25;;;;;6.51;100.00;102129.81;5016724;28;61348;-78
2023/01/27 07:51:11;;;;;;;;;2.00;2.00;;;;;6.48;100.00;102127.19;4999803;28;45472;-78
2023/01/27 07:53:36;;;;;;;;;4.00;1.50;;;;;6.47;100.00;102131.50;4999796;28;45512;-78
2023/01/27 07:56:02;;;;;;;;;2.75;2.00;;;;;6.48;100.00;102137.53;4987316;28;69279;-78
2023/01/27 07:58:27;;;;;;;;;4.00;2.50;;;;;6.51;100.00;102146.19;4979908;28;45456;-78
2023/01/27 08:00:52;;;;;;;;;4.50;3.50;;;;;6.57;100.00;102147.97;4997715;28;45378;-78
2023/01/27 08:03:23;;;;;;;;;1.00;1.00;;;;;6.59;100.00;102154.91;4996413;28;66440;-78
2023/01/27 08:05:49;;;;;;;;;8.00;1.00;;;;;6.59;100.00;102151.44;4997548;28;46030;-78
2023/01/27 08:08:14;;;;;;;;;2.50;2.00;;;;;6.66;100.00;102154.97;4997269;28;45482;-78
2023/01/27 08:10:40;;;;;;;;;1.75;1.00;;;;;6.68;100.00;102159.28;4997086;28;45289;-78
2023/01/27 08:13:05;;;;;;;;;1.75;1.75;;;;;6.68;100.00;102156.69;4997184;28;45350;-78
2023/01/27 08:15:32;;;;;;;;;4.75;3.00;;;;;6.73;100.00;102159.34;4996246;28;69889;-78
2023/01/27 08:17:58;;;;;;;;;1.00;1.00;;;;;6.69;100.00;102155.00;4979705;28;45350;-78
2023/01/27 08:20:25;;;;;;;;;1.75;1.00;;;;;6.71;100.00;102163.66;4995924;28;45659;-77
2023/01/27 08:22:50;;;;;;;;;4.50;1.00;;;;;6.67;100.00;102155.00;4990417;28;45386;-79
2023/01/27 08:25:16;;;;;;;;;4.75;3.50;;;;;6.67;100.00;102148.94;4996376;28;45680;-79
2023/01/27 08:27:41;;;;;;;;;2.00;1.75;;;;;6.70;100.00;102156.72;4995369;28;68043;-78
2023/01/27 08:30:07;;;;;;;;;0.75;0.75;;;;;6.75;100.00;102166.25;4988762;28;64447;-78
2023/01/27 08:32:34;;;;;;;;;5.00;4.00;;;;;6.74;100.00;102161.06;4987206;28;45516;-79
2023/01/27 08:34:59;;;;;;;;;5.00;1.25;;;;;6.76;100.00;102168.00;5007736;28;71359;-80
2023/01/27 08:37:24;;;;;;;;;6.50;2.00;;;;;6.72;100.00;102162.78;4997612;28;68795;-78
2023/01/27 08:39:50;;;;;;;;;8.00;2.00;;;;;6.77;100.00;102166.28;4996739;28;65848;-79
2023/01/27 08:42:15;;;;;;;;;4.50;3.50;;;;;6.77;100.00;102168.88;4978473;28;66441;-78
2023/01/27 08:44:40;;;;;;;;;1.50;1.50;;;;;6.79;100.00;102177.53;4995183;28;63510;-80
2023/01/27 08:47:06;;;;;;;;;3.25;1.75;;;;;6.79;100.00;102175.78;4996447;28;47279;-79
2023/01/27 08:49:31;;;;;;;;;2.00;2.00;;;;;6.79;100.00;102193.91;4995788;28;45503;-81
2023/01/27 08:51:56;;;;;;;;;4.00;4.00;;;;;6.76;100.00;102183.53;4994712;28;60286;-79
2023/01/27 08:54:22;;;;;;;;;6.00;4.75;;;;;6.81;100.00;102187.88;4995753;28;45362;-80
2023/01/27 08:56:47;;;;;;;;;4.50;2.00;;;;;6.77;100.00;102181.81;4991018;28;67579;-77
2023/01/27 08:59:12;;;;;;;;;4.00;2.00;;;;;6.77;100.00;102179.22;4986947;28;48626;-77
2023/01/27 09:01:40;;;;;;;;;4.25;3.00;;;;;6.78;100.00;102184.44;4985646;28;62200;-79
2023/01/27 09:04:05;;;;;;;;;4.75;3.00;;;;;6.79;100.00;102191.31;4979409;28;46166;-78
2023/01/27 09:06:31;;;;;;;;;7.00;2.00;;;;;6.83;100.00;102193.94;4994306;28;45450;-78
2023/01/27 09:09:08;;;;;;;;;4.50;2.00;;;;;6.81;100.00;102187.88;4994580;28;64462;-78
2023/01/27 09:11:39;;;;;;;;;6.50;3.00;;;;;6.82;100.00;102192.22;4995009;28;45520;-76
2023/01/27 09:14:05;;;;;;;;;2.00;2.00;;;;;6.77;100.00;102193.03;4995711;28;45664;-77
2023/01/27 09:16:31;;;;;;;;;7.25;3.50;;;;;6.77;100.00;102199.94;4993003;28;69887;-76
2023/01/27 09:18:57;;;;;;;;;7.00;4.00;;;;;6.75;100.00;102197.31;4968399;28;45605;-76
2023/01/27 09:21:23;;;;;;;;;4.00;3.50;;;;;6.74;100.00;102195.59;4994647;28;45551;-76
2023/01/27 09:23:48;;;;;;;;;4.00;2.00;;;;;6.73;100.00;102193.84;4995430;28;46404;-78
2023/01/27 09:26:14;;;;;;;;;5.00;2.00;;;;;6.69;100.00;102193.81;4993946;28;45418;-78
2023/01/27 09:28:39;;;;;;;;;5.25;4.00;;;;;6.72;100.00;102192.13;4995534;28;45582;-77
2023/01/27 09:31:07;;;;;;;;;8.50;4.00;;;;;6.71;100.00;102194.69;4994554;28;45497;-78
2023/01/27 09:33:33;;;;;;;;;4.00;2.00;;;;;6.73;100.00;102195.59;4995182;28;47148;-77
2023/01/27 09:36:16;;;;;;;;;8.25;4.00;;;;;6.74;100.00;102195.59;4998999;28;45504;-77
2023/01/27 09:38:47;;;;;;;;;4.00;4.00;;;;;6.74;100.00;102186.94;4980099;28;45303;-78
2023/01/27 09:41:27;;;;;;;;;4.00;2.00;;;;;6.76;100.00;102198.19;4974681;28;45844;-75
2023/01/27 09:44:06;;;;;;;;;4.00;3.50;;;;;6.73;100.00;102193.84;4991858;28;45509;-77
2023/01/27 09:46:53;;;;;;;;;8.50;2.00;;;;;6.78;100.00;102196.50;4995250;28;45891;-78
2023/01/27 09:49:47;;;;;;;;;3.50;2.00;;;;;6.78;100.00;102202.53;4989411;28;45470;-79
2023/01/27 09:52:49;;;;;;;;;2.50;2.50;;;;;6.70;100.00;102183.47;4989508;28;45296;-80
2023/01/27 09:55:29;;;;;;;;;6.50;3.75;;;;;6.76;100.00;102201.66;4922548;28;47180;-81
2023/01/27 09:58:01;;;;;;;;;3.25;1.50;;;;;6.61;100.00;102187.69;4917449;28;45744;-80
2023/01/27 10:00:48;;;;;;;;;5.50;2.50;;;;;6.70;100.00;102208.47;4932233;28;45522;-80
2023/01/27 10:03:29;;;;;;;;;5.75;4.25;;;;;6.68;100.00;102216.22;4925841;28;45426;-78
2023/01/27 10:06:31;;;;;;;;;3.50;1.50;;;;;6.66;100.00;102217.06;4921341;28;46280;-79
2023/01/27 10:09:22;;;;;;;;;4.00;1.25;;;;;6.65;100.00;102217.91;4908962;28;45828;-80
2023/01/27 10:12:13;;;;;;;;;11.25;5.00;;;;;6.66;100.00;102217.94;4901918;28;45583;-79
2023/01/27 10:14:54;;;;;;;;;2.00;2.00;;;;;6.71;100.00;102221.44;4938360;28;45528;-80
2023/01/27 10:17:30;;;;;;;;;4.00;4.00;;;;;6.76;100.00;102219.78;4920384;28;47867;-79
2023/01/27 10:19:58;;;;;;;;;4.50;4.00;;;;;6.79;100.00;102224.97;4928392;28;45434;-78
2023/01/27 10:22:43;;;;;;;;;4.75;1.25;;;;;6.75;100.00;102215.44;4916082;28;45626;-80
2023/01/27 10:25:23;;;;;;;;;2.50;2.00;;;;;6.73;100.00;102217.16;4926296;28;45835;-80
2023/01/27 10:27:56;;;;;;;;;6.00;3.50;;;;;6.81;100.00;102232.75;4918062;28;46555;-80
2023/01/27 10:30:35;;;;;;;;;3.50;1.50;;;;;6.74;100.00;102221.47;4918174;28;45997;-80
2023/01/27 10:33:18;;;;;;;;;3.75;2.00;;;;;6.65;100.00;102211.03;4986567;28;45232;-80
2023/01/27 10:35:47;;;;;;;;;7.00;4.25;;;;;6.71;100.00;102234.38;4997464;28;45380;-80
2023/01/27 10:38:46;;;;;;;;;6.75;2.00;;;;;6.71;100.00;102223.16;4979386;28;46747;-80
2023/01/27 10:41:30;;;;;;;;;8.50;1.00;;;;;6.69;100.00;102230.91;4980286;28;45803;-81
2023/01/27 10:44:31;;;;;;;;;5.00;2.00;;;;;6.69;100.00;102233.50;4995143;28;45563;-81
2023/01/27 10:47:06;;;;;;;;;4.00;2.00;;;;;6.68;100.00;102231.75;4988412;28;45502;-80
2023/01/27 10:49:40;;;;;;;;;4.50;4.50;;;;;6.71;100.00;102233.53;4997103;28;47378;-80
2023/01/27 10:52:28;;;;;;;;;7.75;4.00;;;;;6.63;100.00;102214.44;4968263;28;45406;-80
2023/01/27 10:55:01;;;;;;;;;2.00;2.00;;;;;6.67;100.00;102234.34;4971385;28;45684;-81
2023/01/27 10:57:36;;;;;;;;;3.00;2.00;;;;;6.64;100.00;102244.66;4979624;28;45599;-80
2023/01/27 11:00:30;;;;;;;;;6.00;4.50;;;;;6.59;100.00;102226.47;4979323;28;46839;-80
2023/01/27 11:03:09;;;;;;;;;7.50;3.00;;;;;6.65;100.00;102236.00;4966618;28;45335;-80
2023/01/27 11:05:39;;;;;;;;;7.50;3.00;;;;;6.62;100.00;102225.66;4975544;28;45598;-81
2023/01/27 11:08:34;;;;;;;;;6.25;4.00;;;;;6.63;100.00;102237.72;4979434;28;45347;-80
2023/01/27 11:13:46;;;;;;;;;12.50;9.00;;;;;6.50;100.00;102229.84;4975570;28;47603;-80
2023/01/27 11:16:17;;;;;;;;;4.75;2.00;;;;;6.42;100.00;102222.81;4976081;28;45538;-80
2023/01/27 11:18:45;;;;;;;;;5.00;2.50;;;;;6.48;100.00;102222.88;4978657;28;45332;-80
2023/01/27 11:21:30;;;;;;;;;6.00;4.00;;;;;6.51;100.00;102235.88;4973648;28;46220;-79
2023/01/27 11:23:59;;;;;;;;;7.75;2.50;;;;;6.41;100.00;102221.97;4994390;28;72131;-80
2023/01/27 11:26:40;;;;;;;;;8.50;4.50;;;;;6.49;100.00;102225.50;4979871;28;45539;-81
2023/01/27 11:29:37;;;;;;;;;9.00;5.00;;;;;6.48;100.00;102220.31;4979753;28;45423;-79
2023/01/27 11:32:17;;;;;;;;;4.00;4.00;;;;;6.52;100.00;102215.19;4995736;28;46633;-80
2023/01/27 11:35:02;;;;;;;;;6.25;5.00;;;;;6.55;100.00;102206.59;4994907;28;45443;-80
2023/01/27 11:37:31;;;;;;;;;8.25;4.00;;;;;6.63;100.00;102215.31;4995863;28;45483;-80
2023/01/27 11:39:57;;;;;;;;;11.00;4.00;;;;;6.65;100.00;102199.78;4997083;28;45345;-80
2023/01/27 11:42:34;;;;;;;;;3.25;2.50;;;;;6.68;100.00;102210.19;4995429;28;71845;-80
2023/01/27 11:45:00;;;;;;;;;11.50;4.00;;;;;6.74;100.00;102205.06;4962282;28;45871;-81
2023/01/27 11:47:32;;;;;;;;;8.75;5.00;;;;;6.72;100.00;102201.59;4996447;28;45769;-81
2023/01/27 11:49:59;;;;;;;;;5.75;4.00;;;;;6.75;100.00;102201.63;4979268;28;45461;-82
2023/01/27 11:52:27;;;;;;;;;8.00;5.00;;;;;6.71;100.00;102198.16;4977187;28;57977;-80
2023/01/27 11:54:59;;;;;;;;;9.75;4.75;;;;;6.73;100.00;102198.16;4978111;28;46067;-79
2023/01/27 11:57:26;;;;;;;;;9.50;5.00;;;;;6.69;100.00;102193.81;4996760;28;45450;-79
2023/01/27 12:00:06;;;;;;;;;9.00;4.50;;;;;6.71;100.00;102205.06;4993430;28;45463;-79
2023/01/27 12:02:42;;;;;;;;;4.25;4.25;;;;;6.67;100.00;102206.75;4978837;28;46526;-79